To NAV CANADA Home Page Login to a new session Search on AWWS site Feedback and Comments Disclaimer Vers la page française équivalente Tips FAQ What's new on the site To the Forecasts and Observations / NOTAM section To "File a Flight Plan" website Publications and other links Update of the User's profile FIC Telephone Numbers My Weather Data Folder Route Weather Data Regional Weather Data Local Weather Data To the Forecasts and Observations / NOTAM section
Request Generated 10/18/2017 at 03:56:35 UTC . Weather information available at that time is displayed.


Go to a specific product

Save this request

NOTAM

NOTAM


SIGMET
To the Product Selector

SIGMETS GFACN32

WSCN32 CWEG 180123
SIGMET A2 VALID 180120/180520 CWEG-
CZEG EDMONTON FIR SEV TURB OBS WTN 15 NM OF LINE /N4904 W11348/45 SW CYQL -
/N5025 W11420/45 S CYYC - /N5101 W11504/20 SE CYBA SFC/FL140 QS WKNG
RMK GFACN32 GFACN31
END/WSCN22/CWAO

WSCN32 CWEG 180245
SIGMET E3 VALID 180245/180645 CWEG-
CZEG EDMONTON FIR SEV TURB OBS WTN /N5338 W10614/30 NW CYPA - /N5335 W11307/25
NE CYEG - /N4907 W11316/30 SW CYQL - /N4908 W10609/75 S CYMJ - /N5338 W10614/30
NW CYPA SFC/FL050 MOV E 30KT NC
RMK GFACN32/CZWG WINNIPEG FIR SIGMET G3
END/WSCN22/CWAO

WSCN32 CWEG 180245
SIGMET G3 VALID 180245/180645 CWEG-
CZWG WINNIPEG FIR SEV TURB OBS WTN /N5338 W10614/30 NW CYPA - /N5335 W11307/25
NE CYEG - /N4907 W11316/30 SW CYQL - /N4908 W10609/75 S CYMJ - /N5338 W10614/30
NW CYPA SFC/FL050 MOV E 30KT NC
RMK GFACN32/CZEG EDMONTON FIR SIGMET E3
END/WSCN23/CWAO

WSCN32 CWEG 180245
SIGMET H2 VALID 180245/180615 CWEG-
CZEG EDMONTON FIR CNCL SIGMET H1 180215/180615
RMK GFACN32
END/WSCN22/CWAO



AIRMET
To the Product Selector

AIRMETS GFACN32

WACN32 CWEG 180301
AIRMET B1 VALID 180300/180700 CWEG-
CZEG EDMONTON FIR MDT ICG FCST WTN 90 NM OF LINE /N5244 W11243/45 SE CYEG -
/N5000 W10833/45 SW CYYN FL100/180 MOV E 30KT NC
RMK GFACN32/CZWG WINNIPEG FIR AIRMET E1
END/WACN22/CWAO

WACN32 CWEG 180301
AIRMET E1 VALID 180300/180700 CWEG-
CZWG WINNIPEG FIR MDT ICG FCST WTN 90 NM OF LINE /N5244 W11243/45 SE CYEG -
/N5000 W10833/45 SW CYYN FL100/180 MOV E 30KT NC
RMK GFACN32/CZEG EDMONTON FIR AIRMET B1
END/WACN23/CWAO



PIREP
To the Product Selector

FIR_WINNIPEG (WG)

UACN10 CYWG 180354
WG
UA /OV CYQR /TM 0345 /FLDURD /TP DH8D /WV 220070 /RM ON APCH 13 @
010 AGL


METAR/TAF
To the Product Selector

REGINA INTL/SK    

METAR CYQR 180300Z 20017KT 15SM SCT240 15/M05 A2927 RMK CI4 SLP921
DENSITY ALT 3200FT=
METAR CYQR 180200Z 18012KT 15SM SCT280 13/M06 A2930 RMK CI3 PRESFR
SLP935 DENSITY ALT 2800FT=
METAR CYQR 180100Z 20012KT 15SM FEW120 FEW280 16/M06 A2932 RMK AC1CI1
AC TR PRESFR SLP941 DENSITY ALT 3200FT=

TAF AMD CYQR 180254Z 1802/1824 20015G25KT P6SM FEW250
BECMG 1802/1804 24025G40KT
BECMG 1804/1806 24030G50KT
FM180800 28025G45KT P6SM SCT050 TEMPO 1808/1816 3SM BLDU
FM181600 28025G35KT P6SM SKC
RMK NXT FCST BY 180600Z=

MOOSE JAW/AIR VICE MARSHAL C.M. MCEWEN/SK    

CYMJ - METAR not available

TAF AMD CYMJ 172149Z 1718/1806 FCST CNCLD DUE END OF FLYING PROGRAM
RMK NXT FCST WILL BE ISSUED AT 181115Z=


RADAR PCPN RATE
To the Product Selector
Pacific Canada      Western Canada     

SATELLITE VISIBLE
To the Product Selector
West Canada      

SATELLITE INFRARED
To the Product Selector
West Canada     

GRAPHICAL FA CLOUDS & WEATHER FORECASTS
To the Product Selector
Graphical FA gfacn32      

GRAPHICAL FA ICING, TURBULENCE & FREEZING LEVEL FORECASTS
To the Product Selector
Graphical FA gfacn32      

FDTEXT Low Level FD. Temperatures are not forecast for the 3,000-foot level.
To the Product Selector
STN YQR - REGINA. SASK for use 3000 6000 9000 12000 18000
FDCN01 CWAO FCST BASED ON 180000 DATA VALID 180600 05-09 2857+02 2766-01 2669-08 2485-20
FDCN02 CWAO FCST BASED ON 180000 DATA VALID 181200 09-18 3159-03 3061-09 2963-15 2996-21
FDCN03 CWAO FCST BASED ON 180000 DATA VALID 190000 18-05 2729-01 2841-05 2954-04 2963-12



Your time UTC time
Weather data provided by Environment Canada and NAV CANADA